sensor_id;sensor_type;location;lat;lon;timestamp;P1;durP1;ratioP1;P2;durP2;ratioP2
71610;SDS011;59459;51.172;6.682;2023-04-10T00:02:06;14.63;;;6.00;;
71610;SDS011;59459;51.172;6.682;2023-04-10T00:04:32;15.10;;;6.40;;
71610;SDS011;59459;51.172;6.682;2023-04-10T00:06:57;14.73;;;6.50;;
71610;SDS011;59459;51.172;6.682;2023-04-10T00:09:22;13.27;;;6.17;;
71610;SDS011;59459;51.172;6.682;2023-04-10T00:11:47;12.83;;;6.47;;
71610;SDS011;59459;51.172;6.682;2023-04-10T00:14:12;13.87;;;6.07;;
71610;SDS011;59459;51.172;6.682;2023-04-10T00:16:37;14.33;;;6.57;;
71610;SDS011;59459;51.172;6.682;2023-04-10T00:19:03;15.13;;;6.20;;
71610;SDS011;59459;51.172;6.682;2023-04-10T00:21:28;13.20;;;6.07;;
71610;SDS011;59459;51.172;6.682;2023-04-10T00:23:53;14.93;;;6.53;;
71610;SDS011;59459;51.172;6.682;2023-04-10T00:26:18;14.00;;;6.20;;
71610;SDS011;59459;51.172;6.682;2023-04-10T00:28:45;14.00;;;6.30;;
71610;SDS011;59459;51.172;6.682;2023-04-10T00:31:10;14.97;;;6.43;;
71610;SDS011;59459;51.172;6.682;2023-04-10T00:33:35;12.80;;;6.73;;
71610;SDS011;59459;51.172;6.682;2023-04-10T00:36:00;14.40;;;5.77;;
71610;SDS011;59459;51.172;6.682;2023-04-10T00:38:25;15.00;;;6.77;;
71610;SDS011;59459;51.172;6.682;2023-04-10T00:40:51;13.03;;;6.50;;
71610;SDS011;59459;51.172;6.682;2023-04-10T00:43:16;15.23;;;6.47;;
71610;SDS011;59459;51.172;6.682;2023-04-10T00:45:44;14.73;;;6.70;;
71610;SDS011;59459;51.172;6.682;2023-04-10T00:48:09;14.90;;;7.10;;
71610;SDS011;59459;51.172;6.682;2023-04-10T00:50:34;13.70;;;6.27;;
71610;SDS011;59459;51.172;6.682;2023-04-10T00:53:00;18.13;;;6.60;;
71610;SDS011;59459;51.172;6.682;2023-04-10T00:55:26;14.52;;;7.05;;
71610;SDS011;59459;51.172;6.682;2023-04-10T00:57:52;14.47;;;6.13;;
71610;SDS011;59459;51.172;6.682;2023-04-10T01:00:19;14.30;;;6.43;;
71610;SDS011;59459;51.172;6.682;2023-04-10T01:02:44;13.00;;;6.67;;
71610;SDS011;59459;51.172;6.682;2023-04-10T01:05:10;15.10;;;7.07;;
71610;SDS011;59459;51.172;6.682;2023-04-10T01:15:48;14.93;;;6.90;;
71610;SDS011;59459;51.172;6.682;2023-04-10T01:18:21;15.32;;;6.28;;
71610;SDS011;59459;51.172;6.682;2023-04-10T01:20:48;13.95;;;6.20;;
71610;SDS011;59459;51.172;6.682;2023-04-10T01:26:04;14.20;;;6.43;;
71610;SDS011;59459;51.172;6.682;2023-04-10T01:28:43;14.47;;;7.27;;
71610;SDS011;59459;51.172;6.682;2023-04-10T01:31:12;13.57;;;5.85;;
71610;SDS011;59459;51.172;6.682;2023-04-10T01:33:41;13.82;;;6.38;;
71610;SDS011;59459;51.172;6.682;2023-04-10T01:36:07;15.25;;;6.72;;
71610;SDS011;59459;51.172;6.682;2023-04-10T01:38:33;15.10;;;6.90;;
71610;SDS011;59459;51.172;6.682;2023-04-10T01:41:00;13.77;;;6.00;;
71610;SDS011;59459;51.172;6.682;2023-04-10T01:43:26;16.23;;;6.30;;
71610;SDS011;59459;51.172;6.682;2023-04-10T01:45:52;16.35;;;6.45;;
71610;SDS011;59459;51.172;6.682;2023-04-10T01:48:18;14.53;;;6.00;;
71610;SDS011;59459;51.172;6.682;2023-04-10T01:50:44;13.63;;;6.55;;
71610;SDS011;59459;51.172;6.682;2023-04-10T01:53:10;14.93;;;6.28;;
71610;SDS011;59459;51.172;6.682;2023-04-10T01:55:36;15.50;;;7.65;;
71610;SDS011;59459;51.172;6.682;2023-04-10T01:58:02;15.27;;;7.10;;
71610;SDS011;59459;51.172;6.682;2023-04-10T02:00:28;13.32;;;6.55;;
71610;SDS011;59459;51.172;6.682;2023-04-10T02:02:54;14.33;;;6.47;;
71610;SDS011;59459;51.172;6.682;2023-04-10T02:05:19;14.63;;;7.43;;
71610;SDS011;59459;51.172;6.682;2023-04-10T02:07:54;15.25;;;7.05;;
71610;SDS011;59459;51.172;6.682;2023-04-10T02:10:23;13.70;;;6.37;;
71610;SDS011;59459;51.172;6.682;2023-04-10T02:12:52;15.57;;;6.45;;
71610;SDS011;59459;51.172;6.682;2023-04-10T02:15:22;16.08;;;7.20;;
71610;SDS011;59459;51.172;6.682;2023-04-10T02:17:48;15.82;;;6.38;;
71610;SDS011;59459;51.172;6.682;2023-04-10T02:20:14;14.02;;;6.13;;
71610;SDS011;59459;51.172;6.682;2023-04-10T02:22:40;15.13;;;6.97;;
71610;SDS011;59459;51.172;6.682;2023-04-10T02:25:09;16.88;;;6.25;;
71610;SDS011;59459;51.172;6.682;2023-04-10T02:27:34;17.73;;;7.13;;
71610;SDS011;59459;51.172;6.682;2023-04-10T02:30:00;12.73;;;6.87;;
71610;SDS011;59459;51.172;6.682;2023-04-10T02:32:27;14.85;;;6.20;;
71610;SDS011;59459;51.172;6.682;2023-04-10T02:34:52;14.57;;;6.53;;
71610;SDS011;59459;51.172;6.682;2023-04-10T02:37:17;14.10;;;6.17;;
71610;SDS011;59459;51.172;6.682;2023-04-10T02:39:43;14.47;;;6.97;;
71610;SDS011;59459;51.172;6.682;2023-04-10T02:42:08;14.97;;;7.10;;
71610;SDS011;59459;51.172;6.682;2023-04-10T02:44:33;17.07;;;6.80;;
71610;SDS011;59459;51.172;6.682;2023-04-10T02:46:58;15.77;;;6.83;;
71610;SDS011;59459;51.172;6.682;2023-04-10T02:49:23;15.90;;;6.83;;
71610;SDS011;59459;51.172;6.682;2023-04-10T02:51:49;15.53;;;7.30;;
71610;SDS011;59459;51.172;6.682;2023-04-10T02:54:14;15.37;;;7.27;;
71610;SDS011;59459;51.172;6.682;2023-04-10T02:56:39;15.07;;;6.43;;
71610;SDS011;59459;51.172;6.682;2023-04-10T02:59:05;14.23;;;6.60;;
71610;SDS011;59459;51.172;6.682;2023-04-10T03:01:30;15.97;;;6.77;;
71610;SDS011;59459;51.172;6.682;2023-04-10T03:03:56;14.97;;;6.50;;
71610;SDS011;59459;51.172;6.682;2023-04-10T03:06:21;15.13;;;6.60;;
71610;SDS011;59459;51.172;6.682;2023-04-10T03:08:50;16.95;;;7.40;;
71610;SDS011;59459;51.172;6.682;2023-04-10T03:11:15;13.40;;;6.63;;
71610;SDS011;59459;51.172;6.682;2023-04-10T03:13:40;15.47;;;6.60;;
71610;SDS011;59459;51.172;6.682;2023-04-10T03:16:06;15.03;;;6.67;;
71610;SDS011;59459;51.172;6.682;2023-04-10T03:18:31;13.60;;;6.27;;
71610;SDS011;59459;51.172;6.682;2023-04-10T03:20:58;15.27;;;6.88;;
71610;SDS011;59459;51.172;6.682;2023-04-10T03:23:23;14.03;;;6.93;;
71610;SDS011;59459;51.172;6.682;2023-04-10T03:25:49;15.13;;;7.00;;
71610;SDS011;59459;51.172;6.682;2023-04-10T03:28:15;15.40;;;6.47;;
71610;SDS011;59459;51.172;6.682;2023-04-10T03:30:41;14.13;;;6.27;;
71610;SDS011;59459;51.172;6.682;2023-04-10T03:33:06;16.57;;;7.00;;
71610;SDS011;59459;51.172;6.682;2023-04-10T03:35:31;14.33;;;6.73;;
71610;SDS011;59459;51.172;6.682;2023-04-10T03:37:56;14.17;;;7.10;;
71610;SDS011;59459;51.172;6.682;2023-04-10T03:40:22;16.07;;;6.40;;
71610;SDS011;59459;51.172;6.682;2023-04-10T03:42:47;15.50;;;6.93;;
71610;SDS011;59459;51.172;6.682;2023-04-10T03:45:12;15.03;;;7.00;;
71610;SDS011;59459;51.172;6.682;2023-04-10T03:47:38;15.10;;;6.63;;
71610;SDS011;59459;51.172;6.682;2023-04-10T03:50:03;12.63;;;5.97;;
71610;SDS011;59459;51.172;6.682;2023-04-10T03:52:28;14.53;;;5.63;;
71610;SDS011;59459;51.172;6.682;2023-04-10T03:54:53;16.50;;;7.57;;
71610;SDS011;59459;51.172;6.682;2023-04-10T03:57:19;16.67;;;7.53;;
71610;SDS011;59459;51.172;6.682;2023-04-10T03:59:45;14.20;;;6.20;;
71610;SDS011;59459;51.172;6.682;2023-04-10T04:02:11;14.53;;;6.37;;
71610;SDS011;59459;51.172;6.682;2023-04-10T04:04:36;15.23;;;6.47;;
71610;SDS011;59459;51.172;6.682;2023-04-10T04:07:01;13.65;;;6.20;;
71610;SDS011;59459;51.172;6.682;2023-04-10T04:09:26;13.77;;;6.87;;
71610;SDS011;59459;51.172;6.682;2023-04-10T04:11:51;13.47;;;6.37;;
71610;SDS011;59459;51.172;6.682;2023-04-10T04:14:17;15.67;;;6.87;;
71610;SDS011;59459;51.172;6.682;2023-04-10T04:16:42;13.97;;;6.60;;
71610;SDS011;59459;51.172;6.682;2023-04-10T04:19:07;13.27;;;6.20;;
71610;SDS011;59459;51.172;6.682;2023-04-10T04:21:32;15.43;;;6.60;;
71610;SDS011;59459;51.172;6.682;2023-04-10T04:23:57;15.10;;;6.10;;
71610;SDS011;59459;51.172;6.682;2023-04-10T04:26:23;16.20;;;6.65;;
71610;SDS011;59459;51.172;6.682;2023-04-10T04:28:49;13.40;;;6.10;;
71610;SDS011;59459;51.172;6.682;2023-04-10T04:31:14;16.33;;;7.05;;
71610;SDS011;59459;51.172;6.682;2023-04-10T04:33:40;17.10;;;6.90;;
71610;SDS011;59459;51.172;6.682;2023-04-10T04:36:05;13.93;;;6.33;;
71610;SDS011;59459;51.172;6.682;2023-04-10T04:38:30;12.33;;;5.90;;
71610;SDS011;59459;51.172;6.682;2023-04-10T04:40:55;15.27;;;6.07;;
71610;SDS011;59459;51.172;6.682;2023-04-10T04:43:21;14.63;;;6.40;;
71610;SDS011;59459;51.172;6.682;2023-04-10T04:45:46;15.43;;;6.37;;
71610;SDS011;59459;51.172;6.682;2023-04-10T04:48:11;14.47;;;6.40;;
71610;SDS011;59459;51.172;6.682;2023-04-10T04:50:38;14.30;;;6.23;;
71610;SDS011;59459;51.172;6.682;2023-04-10T04:53:03;12.53;;;5.80;;
71610;SDS011;59459;51.172;6.682;2023-04-10T04:55:29;14.30;;;6.55;;
71610;SDS011;59459;51.172;6.682;2023-04-10T04:57:54;13.57;;;5.30;;
71610;SDS011;59459;51.172;6.682;2023-04-10T05:00:19;15.50;;;6.40;;
71610;SDS011;59459;51.172;6.682;2023-04-10T05:02:45;14.73;;;6.50;;
71610;SDS011;59459;51.172;6.682;2023-04-10T05:05:10;13.43;;;6.23;;
71610;SDS011;59459;51.172;6.682;2023-04-10T05:07:35;13.53;;;6.10;;
71610;SDS011;59459;51.172;6.682;2023-04-10T05:10:00;15.70;;;6.67;;
71610;SDS011;59459;51.172;6.682;2023-04-10T05:12:25;12.50;;;5.90;;
71610;SDS011;59459;51.172;6.682;2023-04-10T05:14:51;14.30;;;6.13;;
71610;SDS011;59459;51.172;6.682;2023-04-10T05:17:16;13.87;;;6.40;;
71610;SDS011;59459;51.172;6.682;2023-04-10T05:19:41;12.30;;;5.53;;
71610;SDS011;59459;51.172;6.682;2023-04-10T05:22:07;13.90;;;6.07;;
71610;SDS011;59459;51.172;6.682;2023-04-10T05:24:32;17.70;;;6.70;;
71610;SDS011;59459;51.172;6.682;2023-04-10T05:26:57;13.43;;;5.83;;
71610;SDS011;59459;51.172;6.682;2023-04-10T05:29:22;14.10;;;6.20;;
71610;SDS011;59459;51.172;6.682;2023-04-10T05:31:48;12.98;;;5.97;;
71610;SDS011;59459;51.172;6.682;2023-04-10T05:34:14;15.03;;;6.60;;
71610;SDS011;59459;51.172;6.682;2023-04-10T05:36:39;12.52;;;5.47;;
71610;SDS011;59459;51.172;6.682;2023-04-10T05:39:04;14.53;;;6.07;;
71610;SDS011;59459;51.172;6.682;2023-04-10T05:41:30;13.33;;;5.93;;
71610;SDS011;59459;51.172;6.682;2023-04-10T05:43:55;12.80;;;5.10;;
71610;SDS011;59459;51.172;6.682;2023-04-10T05:46:20;14.63;;;6.77;;
71610;SDS011;59459;51.172;6.682;2023-04-10T05:48:45;14.37;;;6.20;;
71610;SDS011;59459;51.172;6.682;2023-04-10T05:51:11;13.93;;;5.60;;
71610;SDS011;59459;51.172;6.682;2023-04-10T05:53:36;13.73;;;5.90;;
71610;SDS011;59459;51.172;6.682;2023-04-10T05:56:01;13.37;;;5.30;;
71610;SDS011;59459;51.172;6.682;2023-04-10T05:58:27;13.80;;;5.47;;
71610;SDS011;59459;51.172;6.682;2023-04-10T06:00:52;12.30;;;6.03;;
71610;SDS011;59459;51.172;6.682;2023-04-10T06:03:17;12.33;;;5.90;;
71610;SDS011;59459;51.172;6.682;2023-04-10T06:05:43;13.55;;;5.82;;
71610;SDS011;59459;51.172;6.682;2023-04-10T06:08:09;12.88;;;5.75;;
71610;SDS011;59459;51.172;6.682;2023-04-10T06:10:35;12.30;;;5.77;;
71610;SDS011;59459;51.172;6.682;2023-04-10T06:13:00;14.02;;;5.50;;
71610;SDS011;59459;51.172;6.682;2023-04-10T06:15:25;12.80;;;5.30;;
71610;SDS011;59459;51.172;6.682;2023-04-10T06:17:51;15.40;;;6.27;;
71610;SDS011;59459;51.172;6.682;2023-04-10T06:20:17;13.40;;;5.70;;
71610;SDS011;59459;51.172;6.682;2023-04-10T06:22:43;13.23;;;5.60;;
71610;SDS011;59459;51.172;6.682;2023-04-10T06:25:08;12.17;;;5.70;;
71610;SDS011;59459;51.172;6.682;2023-04-10T06:27:33;14.00;;;5.53;;
71610;SDS011;59459;51.172;6.682;2023-04-10T06:30:01;16.90;;;6.18;;
71610;SDS011;59459;51.172;6.682;2023-04-10T06:32:27;11.63;;;6.00;;
71610;SDS011;59459;51.172;6.682;2023-04-10T06:34:52;12.60;;;5.47;;
71610;SDS011;59459;51.172;6.682;2023-04-10T06:37:17;14.40;;;6.53;;
71610;SDS011;59459;51.172;6.682;2023-04-10T06:39:42;13.63;;;6.00;;
71610;SDS011;59459;51.172;6.682;2023-04-10T06:42:07;14.03;;;6.03;;
71610;SDS011;59459;51.172;6.682;2023-04-10T06:44:33;11.13;;;5.20;;
71610;SDS011;59459;51.172;6.682;2023-04-10T06:46:58;13.80;;;5.87;;
71610;SDS011;59459;51.172;6.682;2023-04-10T06:49:23;12.63;;;5.90;;
71610;SDS011;59459;51.172;6.682;2023-04-10T06:51:48;12.63;;;6.00;;
71610;SDS011;59459;51.172;6.682;2023-04-10T06:54:14;13.17;;;6.00;;
71610;SDS011;59459;51.172;6.682;2023-04-10T06:56:39;12.55;;;5.47;;
71610;SDS011;59459;51.172;6.682;2023-04-10T06:59:04;13.07;;;6.07;;
71610;SDS011;59459;51.172;6.682;2023-04-10T07:01:30;13.87;;;6.57;;
71610;SDS011;59459;51.172;6.682;2023-04-10T07:03:55;12.37;;;5.87;;
71610;SDS011;59459;51.172;6.682;2023-04-10T07:06:20;12.57;;;6.03;;
71610;SDS011;59459;51.172;6.682;2023-04-10T07:08:47;12.47;;;5.97;;
71610;SDS011;59459;51.172;6.682;2023-04-10T07:11:12;13.32;;;6.35;;
71610;SDS011;59459;51.172;6.682;2023-04-10T07:13:37;13.53;;;6.60;;
71610;SDS011;59459;51.172;6.682;2023-04-10T07:16:04;12.95;;;5.50;;
71610;SDS011;59459;51.172;6.682;2023-04-10T07:18:29;12.90;;;6.27;;
71610;SDS011;59459;51.172;6.682;2023-04-10T07:20:55;14.52;;;6.43;;
71610;SDS011;59459;51.172;6.682;2023-04-10T07:23:20;12.77;;;5.83;;
71610;SDS011;59459;51.172;6.682;2023-04-10T07:25:46;13.18;;;5.20;;
71610;SDS011;59459;51.172;6.682;2023-04-10T07:28:11;11.60;;;5.60;;
71610;SDS011;59459;51.172;6.682;2023-04-10T07:30:36;11.90;;;5.50;;
71610;SDS011;59459;51.172;6.682;2023-04-10T07:33:02;12.03;;;5.37;;
71610;SDS011;59459;51.172;6.682;2023-04-10T07:35:27;11.37;;;5.83;;
71610;SDS011;59459;51.172;6.682;2023-04-10T07:37:52;11.37;;;5.43;;
71610;SDS011;59459;51.172;6.682;2023-04-10T07:40:18;11.83;;;5.60;;
71610;SDS011;59459;51.172;6.682;2023-04-10T07:42:43;11.33;;;5.53;;
71610;SDS011;59459;51.172;6.682;2023-04-10T07:45:10;11.77;;;6.07;;
71610;SDS011;59459;51.172;6.682;2023-04-10T07:47:35;11.15;;;6.07;;
71610;SDS011;59459;51.172;6.682;2023-04-10T07:50:00;10.63;;;5.83;;
71610;SDS011;59459;51.172;6.682;2023-04-10T07:52:25;11.73;;;6.27;;
71610;SDS011;59459;51.172;6.682;2023-04-10T07:54:51;12.23;;;6.20;;
71610;SDS011;59459;51.172;6.682;2023-04-10T07:57:16;12.40;;;6.40;;
71610;SDS011;59459;51.172;6.682;2023-04-10T07:59:41;11.27;;;6.07;;
71610;SDS011;59459;51.172;6.682;2023-04-10T08:02:06;8.97;;;5.37;;
71610;SDS011;59459;51.172;6.682;2023-04-10T08:04:31;11.23;;;6.27;;
71610;SDS011;59459;51.172;6.682;2023-04-10T08:06:57;11.50;;;5.10;;
71610;SDS011;59459;51.172;6.682;2023-04-10T08:09:22;10.60;;;5.13;;
71610;SDS011;59459;51.172;6.682;2023-04-10T08:11:47;11.27;;;5.70;;
71610;SDS011;59459;51.172;6.682;2023-04-10T08:14:12;11.13;;;5.50;;
71610;SDS011;59459;51.172;6.682;2023-04-10T08:16:38;11.00;;;5.10;;
71610;SDS011;59459;51.172;6.682;2023-04-10T08:19:03;10.77;;;5.60;;
71610;SDS011;59459;51.172;6.682;2023-04-10T08:21:29;13.38;;;5.40;;
71610;SDS011;59459;51.172;6.682;2023-04-10T08:23:56;10.80;;;4.43;;
71610;SDS011;59459;51.172;6.682;2023-04-10T08:26:21;10.18;;;4.90;;
71610;SDS011;59459;51.172;6.682;2023-04-10T08:28:47;8.70;;;4.53;;
71610;SDS011;59459;51.172;6.682;2023-04-10T08:31:14;11.32;;;5.07;;
71610;SDS011;59459;51.172;6.682;2023-04-10T08:33:39;9.80;;;4.83;;
71610;SDS011;59459;51.172;6.682;2023-04-10T08:36:05;10.57;;;4.45;;
71610;SDS011;59459;51.172;6.682;2023-04-10T08:38:30;9.60;;;4.77;;
71610;SDS011;59459;51.172;6.682;2023-04-10T08:40:56;10.40;;;5.07;;
71610;SDS011;59459;51.172;6.682;2023-04-10T08:43:21;10.10;;;4.83;;
71610;SDS011;59459;51.172;6.682;2023-04-10T08:45:46;11.43;;;4.80;;
71610;SDS011;59459;51.172;6.682;2023-04-10T08:48:12;9.97;;;4.70;;
71610;SDS011;59459;51.172;6.682;2023-04-10T08:50:40;10.55;;;4.93;;
71610;SDS011;59459;51.172;6.682;2023-04-10T08:53:10;9.70;;;5.22;;
71610;SDS011;59459;51.172;6.682;2023-04-10T08:55:35;9.98;;;4.72;;
71610;SDS011;59459;51.172;6.682;2023-04-10T08:58:00;9.73;;;4.77;;
71610;SDS011;59459;51.172;6.682;2023-04-10T09:00:26;10.47;;;5.13;;
71610;SDS011;59459;51.172;6.682;2023-04-10T09:02:53;9.80;;;5.65;;
71610;SDS011;59459;51.172;6.682;2023-04-10T09:05:22;16.20;;;5.80;;
71610;SDS011;59459;51.172;6.682;2023-04-10T09:07:48;8.32;;;4.95;;
71610;SDS011;59459;51.172;6.682;2023-04-10T09:10:13;9.23;;;4.73;;
71610;SDS011;59459;51.172;6.682;2023-04-10T09:12:45;9.23;;;5.10;;
71610;SDS011;59459;51.172;6.682;2023-04-10T09:15:10;8.82;;;4.47;;
71610;SDS011;59459;51.172;6.682;2023-04-10T09:17:36;9.73;;;4.87;;
71610;SDS011;59459;51.172;6.682;2023-04-10T09:20:01;7.30;;;4.07;;
71610;SDS011;59459;51.172;6.682;2023-04-10T09:22:30;7.47;;;4.00;;
71610;SDS011;59459;51.172;6.682;2023-04-10T09:24:56;8.90;;;3.95;;
71610;SDS011;59459;51.172;6.682;2023-04-10T09:27:35;8.63;;;4.70;;
71610;SDS011;59459;51.172;6.682;2023-04-10T09:30:01;9.85;;;4.82;;
71610;SDS011;59459;51.172;6.682;2023-04-10T09:35:11;8.15;;;4.05;;
71610;SDS011;59459;51.172;6.682;2023-04-10T09:37:45;8.43;;;4.43;;
71610;SDS011;59459;51.172;6.682;2023-04-10T09:40:24;8.33;;;3.70;;
71610;SDS011;59459;51.172;6.682;2023-04-10T09:42:50;8.32;;;3.95;;
71610;SDS011;59459;51.172;6.682;2023-04-10T09:45:16;7.93;;;3.90;;
71610;SDS011;59459;51.172;6.682;2023-04-10T09:48:00;8.35;;;4.35;;
71610;SDS011;59459;51.172;6.682;2023-04-10T09:50:35;9.15;;;4.70;;
71610;SDS011;59459;51.172;6.682;2023-04-10T09:53:00;8.35;;;4.75;;
71610;SDS011;59459;51.172;6.682;2023-04-10T09:55:25;8.50;;;4.90;;
71610;SDS011;59459;51.172;6.682;2023-04-10T09:57:54;9.93;;;4.88;;
71610;SDS011;59459;51.172;6.682;2023-04-10T10:00:20;8.60;;;4.47;;
71610;SDS011;59459;51.172;6.682;2023-04-10T10:02:46;8.70;;;4.60;;
71610;SDS011;59459;51.172;6.682;2023-04-10T10:05:12;7.40;;;4.70;;
71610;SDS011;59459;51.172;6.682;2023-04-10T10:07:37;10.60;;;4.90;;
71610;SDS011;59459;51.172;6.682;2023-04-10T10:10:03;9.05;;;5.15;;
71610;SDS011;59459;51.172;6.682;2023-04-10T10:12:51;8.05;;;4.53;;
71610;SDS011;59459;51.172;6.682;2023-04-10T10:15:21;9.48;;;4.88;;
71610;SDS011;59459;51.172;6.682;2023-04-10T10:17:50;7.53;;;3.73;;
71610;SDS011;59459;51.172;6.682;2023-04-10T10:20:17;7.65;;;3.83;;
71610;SDS011;59459;51.172;6.682;2023-04-10T10:22:44;8.65;;;4.35;;
71610;SDS011;59459;51.172;6.682;2023-04-10T10:25:10;8.15;;;4.32;;
71610;SDS011;59459;51.172;6.682;2023-04-10T10:27:36;8.02;;;4.00;;
71610;SDS011;59459;51.172;6.682;2023-04-10T10:30:02;7.20;;;4.17;;
71610;SDS011;59459;51.172;6.682;2023-04-10T10:32:29;7.10;;;4.15;;
71610;SDS011;59459;51.172;6.682;2023-04-10T10:34:54;6.67;;;3.87;;
71610;SDS011;59459;51.172;6.682;2023-04-10T10:37:20;7.50;;;3.90;;
71610;SDS011;59459;51.172;6.682;2023-04-10T10:47:20;8.40;;;4.55;;
71610;SDS011;59459;51.172;6.682;2023-04-10T10:49:50;8.30;;;4.43;;
71610;SDS011;59459;51.172;6.682;2023-04-10T10:52:35;7.60;;;4.38;;
71610;SDS011;59459;51.172;6.682;2023-04-10T10:55:17;7.37;;;3.77;;
71610;SDS011;59459;51.172;6.682;2023-04-10T10:57:46;7.55;;;3.70;;
71610;SDS011;59459;51.172;6.682;2023-04-10T11:00:12;7.63;;;3.75;;
71610;SDS011;59459;51.172;6.682;2023-04-10T11:02:37;10.50;;;4.13;;
71610;SDS011;59459;51.172;6.682;2023-04-10T11:05:02;8.20;;;4.30;;
71610;SDS011;59459;51.172;6.682;2023-04-10T11:08:06;7.50;;;3.40;;
71610;SDS011;59459;51.172;6.682;2023-04-10T11:10:13;7.72;;;3.83;;
71610;SDS011;59459;51.172;6.682;2023-04-10T11:13:13;8.13;;;3.92;;
71610;SDS011;59459;51.172;6.682;2023-04-10T11:15:25;9.00;;;3.90;;
71610;SDS011;59459;51.172;6.682;2023-04-10T11:17:51;7.40;;;3.78;;
71610;SDS011;59459;51.172;6.682;2023-04-10T11:20:18;7.78;;;3.35;;
71610;SDS011;59459;51.172;6.682;2023-04-10T11:28:37;6.57;;;3.27;;
71610;SDS011;59459;51.172;6.682;2023-04-10T11:34:21;6.60;;;3.20;;
71610;SDS011;59459;51.172;6.682;2023-04-10T11:40:03;7.68;;;3.38;;
71610;SDS011;59459;51.172;6.682;2023-04-10T12:20:22;8.07;;;3.25;;
71610;SDS011;59459;51.172;6.682;2023-04-10T12:23:13;6.70;;;3.07;;
71610;SDS011;59459;51.172;6.682;2023-04-10T12:25:48;6.55;;;3.13;;
71610;SDS011;59459;51.172;6.682;2023-04-10T12:28:20;5.82;;;3.00;;
71610;SDS011;59459;51.172;6.682;2023-04-10T12:30:46;6.93;;;3.08;;
71610;SDS011;59459;51.172;6.682;2023-04-10T12:33:12;6.72;;;3.40;;
71610;SDS011;59459;51.172;6.682;2023-04-10T12:35:40;6.80;;;3.50;;
71610;SDS011;59459;51.172;6.682;2023-04-10T12:41:08;5.88;;;3.20;;
71610;SDS011;59459;51.172;6.682;2023-04-10T12:43:37;5.28;;;2.78;;
71610;SDS011;59459;51.172;6.682;2023-04-10T12:49:15;5.53;;;2.90;;
71610;SDS011;59459;51.172;6.682;2023-04-10T12:54:47;4.82;;;2.30;;
71610;SDS011;59459;51.172;6.682;2023-04-10T12:57:24;6.93;;;2.65;;
71610;SDS011;59459;51.172;6.682;2023-04-10T12:59:50;6.32;;;2.72;;
71610;SDS011;59459;51.172;6.682;2023-04-10T13:02:15;4.67;;;2.40;;
71610;SDS011;59459;51.172;6.682;2023-04-10T13:04:42;4.63;;;2.50;;
71610;SDS011;59459;51.172;6.682;2023-04-10T13:07:08;4.70;;;2.70;;
71610;SDS011;59459;51.172;6.682;2023-04-10T13:09:33;5.03;;;2.23;;
71610;SDS011;59459;51.172;6.682;2023-04-10T13:11:58;4.90;;;2.47;;
71610;SDS011;59459;51.172;6.682;2023-04-10T13:14:23;5.72;;;2.15;;
71610;SDS011;59459;51.172;6.682;2023-04-10T13:16:50;5.30;;;2.00;;
71610;SDS011;59459;51.172;6.682;2023-04-10T13:19:15;4.55;;;2.40;;
71610;SDS011;59459;51.172;6.682;2023-04-10T13:21:41;5.33;;;2.57;;
71610;SDS011;59459;51.172;6.682;2023-04-10T13:24:06;4.77;;;2.20;;
71610;SDS011;59459;51.172;6.682;2023-04-10T13:26:31;5.23;;;2.60;;
71610;SDS011;59459;51.172;6.682;2023-04-10T13:28:57;4.70;;;2.10;;
71610;SDS011;59459;51.172;6.682;2023-04-10T13:31:22;5.50;;;2.47;;
71610;SDS011;59459;51.172;6.682;2023-04-10T13:33:47;4.50;;;2.30;;
71610;SDS011;59459;51.172;6.682;2023-04-10T13:36:15;4.60;;;1.90;;
71610;SDS011;59459;51.172;6.682;2023-04-10T13:38:40;4.40;;;2.22;;
71610;SDS011;59459;51.172;6.682;2023-04-10T13:41:05;3.53;;;2.07;;
71610;SDS011;59459;51.172;6.682;2023-04-10T13:43:31;4.13;;;2.00;;
71610;SDS011;59459;51.172;6.682;2023-04-10T13:45:56;5.63;;;2.20;;
71610;SDS011;59459;51.172;6.682;2023-04-10T13:48:21;5.47;;;2.30;;
71610;SDS011;59459;51.172;6.682;2023-04-10T13:50:46;4.90;;;2.60;;
71610;SDS011;59459;51.172;6.682;2023-04-10T13:53:11;4.60;;;2.27;;
71610;SDS011;59459;51.172;6.682;2023-04-10T13:55:37;4.90;;;2.23;;
71610;SDS011;59459;51.172;6.682;2023-04-10T13:58:03;5.45;;;2.75;;
71610;SDS011;59459;51.172;6.682;2023-04-10T14:00:28;4.53;;;2.53;;
71610;SDS011;59459;51.172;6.682;2023-04-10T14:02:53;4.03;;;2.10;;
71610;SDS011;59459;51.172;6.682;2023-04-10T14:05:18;4.80;;;2.00;;
71610;SDS011;59459;51.172;6.682;2023-04-10T14:07:43;4.40;;;2.33;;
71610;SDS011;59459;51.172;6.682;2023-04-10T14:10:09;4.33;;;2.17;;
71610;SDS011;59459;51.172;6.682;2023-04-10T14:12:34;4.97;;;2.20;;
71610;SDS011;59459;51.172;6.682;2023-04-10T14:14:59;4.97;;;2.53;;
71610;SDS011;59459;51.172;6.682;2023-04-10T14:17:25;6.27;;;2.37;;
71610;SDS011;59459;51.172;6.682;2023-04-10T14:19:50;3.90;;;1.90;;
71610;SDS011;59459;51.172;6.682;2023-04-10T14:22:16;4.17;;;2.23;;
71610;SDS011;59459;51.172;6.682;2023-04-10T14:24:42;4.63;;;2.05;;
71610;SDS011;59459;51.172;6.682;2023-04-10T14:27:07;5.83;;;2.53;;
71610;SDS011;59459;51.172;6.682;2023-04-10T14:29:32;4.37;;;2.30;;
71610;SDS011;59459;51.172;6.682;2023-04-10T14:31:57;4.83;;;2.13;;
71610;SDS011;59459;51.172;6.682;2023-04-10T14:34:23;4.97;;;2.60;;
71610;SDS011;59459;51.172;6.682;2023-04-10T14:36:48;6.53;;;2.30;;
71610;SDS011;59459;51.172;6.682;2023-04-10T14:39:13;4.43;;;2.20;;
71610;SDS011;59459;51.172;6.682;2023-04-10T14:41:38;5.40;;;2.30;;
71610;SDS011;59459;51.172;6.682;2023-04-10T14:44:03;6.07;;;2.30;;
71610;SDS011;59459;51.172;6.682;2023-04-10T14:46:29;7.07;;;2.53;;
71610;SDS011;59459;51.172;6.682;2023-04-10T14:48:54;4.73;;;2.30;;
71610;SDS011;59459;51.172;6.682;2023-04-10T14:51:19;5.47;;;2.30;;
71610;SDS011;59459;51.172;6.682;2023-04-10T14:53:45;4.53;;;2.27;;
71610;SDS011;59459;51.172;6.682;2023-04-10T14:56:13;4.90;;;2.00;;
71610;SDS011;59459;51.172;6.682;2023-04-10T14:58:39;5.55;;;2.60;;
71610;SDS011;59459;51.172;6.682;2023-04-10T15:01:10;4.90;;;2.23;;
71610;SDS011;59459;51.172;6.682;2023-04-10T15:03:37;5.63;;;2.58;;
71610;SDS011;59459;51.172;6.682;2023-04-10T15:06:03;5.10;;;2.13;;
71610;SDS011;59459;51.172;6.682;2023-04-10T15:08:28;5.20;;;2.30;;
71610;SDS011;59459;51.172;6.682;2023-04-10T15:10:53;4.90;;;2.57;;
71610;SDS011;59459;51.172;6.682;2023-04-10T15:13:19;4.15;;;1.95;;
71610;SDS011;59459;51.172;6.682;2023-04-10T15:15:44;4.50;;;2.10;;
71610;SDS011;59459;51.172;6.682;2023-04-10T15:18:09;5.20;;;2.80;;
71610;SDS011;59459;51.172;6.682;2023-04-10T15:20:35;5.17;;;2.30;;
71610;SDS011;59459;51.172;6.682;2023-04-10T15:23:00;4.53;;;2.20;;
71610;SDS011;59459;51.172;6.682;2023-04-10T15:25:26;4.82;;;2.25;;
71610;SDS011;59459;51.172;6.682;2023-04-10T15:27:53;5.03;;;2.50;;
71610;SDS011;59459;51.172;6.682;2023-04-10T15:30:18;4.93;;;2.90;;
71610;SDS011;59459;51.172;6.682;2023-04-10T15:32:44;5.73;;;2.70;;
71610;SDS011;59459;51.172;6.682;2023-04-10T15:35:09;4.50;;;2.20;;
71610;SDS011;59459;51.172;6.682;2023-04-10T15:37:34;6.93;;;2.90;;
71610;SDS011;59459;51.172;6.682;2023-04-10T15:40:01;5.88;;;2.90;;
71610;SDS011;59459;51.172;6.682;2023-04-10T15:42:26;5.95;;;2.60;;
71610;SDS011;59459;51.172;6.682;2023-04-10T15:44:52;6.33;;;2.70;;
71610;SDS011;59459;51.172;6.682;2023-04-10T15:47:17;5.37;;;2.70;;
71610;SDS011;59459;51.172;6.682;2023-04-10T15:49:42;5.67;;;2.67;;
71610;SDS011;59459;51.172;6.682;2023-04-10T15:52:07;6.97;;;2.93;;
71610;SDS011;59459;51.172;6.682;2023-04-10T15:54:33;5.60;;;2.23;;
71610;SDS011;59459;51.172;6.682;2023-04-10T15:56:58;5.13;;;2.25;;